Superior, Colorado
Current Conditions -  °F | °C
As of 8:47 AM on Saturday 20 Dec 2014 (Local Time) from KBJC Reporting Station
Broken Clouds Broken Clouds  
Wind Chill: 32°   Ceiling: 12000
Heat Index: 32°   Visibility: 50mi
Dew Point: 19°   Wind: 3mph
Humidity: 60%   Direction: NA
Pressure: 30"   Gusts: NA
Location:  39.9475°N, 105.17°W
Report Text: KBJC 201547Z VRB03KT 50SM SCT080 BKN120 BKN200 00/M07 A3000
Loading
Personal Weather Stations






























Interactive Weather Map New forecast layout! Learn more

10-Day Weather Forecast

Advertisements
Track Severe Weather on mobile